• Join FlightAware (Why Join?)
  • Login
  • US Flag 
03:44AM EDT


 

Airport Tracker/Info


-or-


 

Live Flight TrackerFlight Track Log ✈ AWE2740 ✈ 18-Aug-2013 ✈ KCLT - KMHT

Flight Track Log - Related Links

Times and Time Zones

All times are in EDT time to prevent confusion due to time zone crossing. See the AWE2740 flight status page for this flight to view local times or setup timezone preferences in your user account.

Time Position Orientation Groundspeed Altitude Reporting Facility
EDT Latitude Longitude Course Direction KTS MPH feet Rate Location/Type
08:10PM 35.1908 -80.9356 157° South 173 199 1,400  Level Atlanta Center
08:12PM 35.1231 -80.9003 157° South 209 241 4,600 1,980 Climbing Atlanta Center
08:13PM 35.0939 -80.8175 113° Southeast 275 316 6,400 1,620 Climbing Atlanta Center
08:14PM 35.1122 -80.7228 77° East 298 343 8,000 1,920 Climbing Atlanta Center
08:15PM 35.1619 -80.6344 55° Northeast 319 367 10,300 1,860 Climbing Atlanta Center
08:16PM 35.2486 -80.4803 55° Northeast 334 384 12,800 1,680 Climbing Washington Center
08:17PM 35.3114 -80.3722 55° Northeast 368 423 14,700 1,980 Climbing Washington Center
08:18PM 35.3722 -80.2611 56° Northeast 379 436 16,800 1,620 Climbing Washington Center
08:19PM 35.4311 -80.1397 59° Northeast 397 457 17,900 1,380 Climbing Washington Center
08:20PM 35.4672 -80.0117 71° East 397 457 19,700 1,560 Climbing Washington Center
08:21PM 35.5058 -79.8708 71° East 408 470 21,100 1,260 Climbing Washington Center
08:22PM 35.5400 -79.7272 74° East 419 482 22,300 1,200 Climbing Washington Center
08:23PM 35.5739 -79.5911 73° East 442 509 23,600 1,200 Climbing Washington Center
08:24PM 35.6167 -79.4322 72° East 454 522 24,700 1,020 Climbing Washington Center
08:25PM 35.6772 -79.2944 62° Northeast 454 522 25,700 900 Climbing Washington Center
08:26PM 35.7783 -79.1942 39° Northeast 448 516 26,600 840 Climbing Washington Center
08:27PM 35.8858 -79.0914 38° Northeast 459 528 27,400 840 Climbing Washington Center
08:28PM 35.9953 -78.9886 37° Northeast 477 549 28,300 780 Climbing Washington Center
08:29PM 36.1025 -78.8825 39° Northeast 490 564 29,000 840 Climbing Washington Center
08:30PM 36.2139 -78.7714 39° Northeast 497 572 30,000 960 Climbing Washington Center
08:31PM 36.3253 -78.6650 38° Northeast 503 579 31,000 960 Climbing Washington Center
08:32PM 36.4344 -78.5583 38° Northeast 503 579 32,000 960 Climbing Washington Center
08:33PM 36.5433 -78.4486 39° Northeast 503 579 33,000 960 Climbing Washington Center
08:34PM 36.6503 -78.3439 38° Northeast 503 579 34,000 480 Climbing Washington Center
08:35PM 36.7464 -78.2436 40° Northeast 503 579 34,000  Level Washington Center
08:36PM 36.8572 -78.1333 39° Northeast 503 579 34,000  Level Washington Center
08:37PM 36.9703 -78.0200 39° Northeast 508 585 34,000  Level Washington Center
08:38PM 37.0831 -77.9089 38° Northeast 508 585 34,000  Level Washington Center
08:39PM 37.1956 -77.7950 39° Northeast 508 585 34,000  Level Washington Center
08:40PM 37.3083 -77.6808 39° Northeast 513 590 34,000  Level Washington Center
08:41PM 37.4228 -77.5661 39° Northeast 513 590 34,000  Level Washington Center
08:42PM 37.5375 -77.4486 39° Northeast 518 596 34,000  Level Washington Center
08:43PM 37.6497 -77.3333 39° Northeast 518 596 34,000  Level Washington Center
08:44PM 37.7619 -77.2150 40° Northeast 518 596 34,000  Level Washington Center
08:45PM 37.8781 -77.0992 38° Northeast 523 602 34,000  Level Washington Center
08:46PM 37.9900 -76.9803 40° Northeast 523 602 34,000  Level Washington Center
08:47PM 38.1039 -76.8636 39° Northeast 523 602 34,000  Level Washington Center
08:48PM 38.2156 -76.7439 40° Northeast 523 602 34,000  Level Washington Center
08:49PM 38.3378 -76.6133 40° Northeast 523 602 34,000  Level Washington Center
08:50PM 38.4533 -76.4958 39° Northeast 518 596 34,000  Level Washington Center
08:51PM 38.5647 -76.3775 40° Northeast 523 602 34,000  Level Washington Center
08:52PM 38.6781 -76.2539 40° Northeast 523 602 34,000  Level Washington Center
08:53PM 38.7828 -76.1483 38° Northeast 523 602 34,000  Level Washington Center
08:54PM 38.8958 -76.0236 41° Northeast 528 608 34,000  Level Washington Center
08:55PM 39.0089 -75.9042 39° Northeast 528 608 34,000 420 Level Washington Center
08:56PM 39.1217 -75.7842 40° Northeast 528 608 34,900 480 Climbing Washington Center
08:57PM 39.2425 -75.6828 33° Northeast 522 601 35,000  Climbing Washington Center
08:58PM 39.3594 -75.5861 33° Northeast 510 587 35,000  Level Washington Center
09:00PM 39.5697 -75.4111 33° Northeast 489 563 35,000  Level New York Center
09:01PM 39.6906 -75.3114 32° Northeast 501 577 35,000  Level New York Center
09:02PM 39.8089 -75.2136 32° Northeast 501 577 35,000  Level New York Center
09:03PM 39.9128 -75.1144 36° Northeast 501 577 35,000  Level New York Center
09:04PM 40.0372 -75.0111 32° Northeast 519 597 35,000  Level New York Center
09:05PM 40.1536 -74.9097 34° Northeast 519 597 35,000  Level New York Center
09:06PM 40.2697 -74.8050 35° Northeast 519 597 35,000  Level New York Center
09:07PM 40.3856 -74.7028 34° Northeast 514 592 35,000  Level New York Center
09:08PM 40.5131 -74.6336 22° Northeast 501 577 35,000  Level New York Center
09:09PM 40.6436 -74.5892 14° North 486 559 35,000  Level New York Center
09:10PM 40.7786 -74.5392 16° North 486 559 35,000  Level New York Center
09:13PM 41.1181 -74.4156 15° North 480 552 35,000  Level Boston Center
09:14PM 41.2417 -74.3753 14° North 480 552 35,000  Level Boston Center
09:15PM 41.3886 -74.3161 17° North 485 558 35,000  Level Boston Center
09:16PM 41.5103 -74.2725 15° North 500 575 35,000 -600 Level Boston Center
09:17PM 41.6464 -74.2236 15° North 500 575 33,900 -1,380 Descending Boston Center
09:18PM 41.7975 -74.1694 15° North 506 582 32,200 -1,560 Descending Boston Center
09:19PM 41.9303 -74.0642 31° Northeast 514 592 30,800 -1,320 Descending Boston Center
09:20PM 42.0139 -73.8931 57° Northeast 507 583 29,700 -1,320 Descending Boston Center
09:21PM 42.0867 -73.7214 60° Northeast 513 590 28,300 -1,380 Descending Boston Center
09:22PM 42.1614 -73.5547 59° Northeast 525 604 26,900 -1,740 Descending Boston Center
09:23PM 42.2256 -73.3989 61° Northeast 499 574 24,900 -2,100 Descending Boston Center
09:24PM 42.2850 -73.2594 60° Northeast 461 531 22,800 -1,800 Descending Boston Center
09:25PM 42.3464 -73.1114 61° Northeast 436 502 21,300 -1,560 Descending Boston Center
09:26PM 42.3992 -72.9856 60° Northeast 421 484 19,800 -1,200 Descending Boston Center
09:27PM 42.4517 -72.8594 61° Northeast 385 443 19,000 -420 Descending Boston Center
09:28PM 42.5000 -72.7414 61° Northeast 385 443 19,000 -1,200 Level Boston Center
09:29PM 42.5544 -72.6064 61° Northeast 395 455 16,700 -2,340 Descending Boston Center
09:30PM 42.6089 -72.4683 62° Northeast 400 460 14,300 -2,340 Descending Boston Center
09:31PM 42.6608 -72.3356 62° Northeast 400 460 12,100 -1,740 Descending Boston Center
09:32PM 42.7128 -72.2056 61° Northeast 369 425 10,900 -960 Descending Boston Center
09:33PM 42.7522 -72.0981 63° Northeast 325 374 10,200 -900 Descending Boston Center
09:34PM 42.7767 -71.9933 72° East 289 333 9,200 -1,140 Descending Boston Center
09:35PM 42.7722 -71.8858 93° East 279 321 7,900 -1,560 Descending Boston Center
09:36PM 42.7672 -71.7756 93° East 279 321 6,200 -1,380 Descending Boston Center
09:37PM 42.7606 -71.6708 95° East 284 327 5,200 -600 Descending Boston Center
09:38PM 42.7556 -71.5778 94° East 258 297 5,100 -300 Descending Boston Center
09:39PM 42.7656 -71.5097 79° East 210 242 4,700 -1,080 Descending Boston Center
09:40PM 42.7856 -71.4300 71° East 199 229 3,000 -1,020 Descending Boston Center
09:41PM 42.8164 -71.3786 51° Northeast 199 229 2,700 -780 Descending Boston Center
09:42PM 42.8603 -71.3922 347° North 137 158 1,500 -900 Descending Boston Center
09:43PM 42.8958 -71.4114 338° Northwest 139 160 900 -600 Descending Boston Center
09:44PM 42.9317 -71.4333 336° Northwest 144 166 400 -540 Descending Boston Center